sensor_id;sensor_type;location;lat;lon;timestamp;temperature;humidity
61392;DHT22;47261;52.892;5.738;2023-06-05T00:01:37;10.70;96.90
61392;DHT22;47261;52.892;5.738;2023-06-05T00:04:03;10.70;97.00
61392;DHT22;47261;52.892;5.738;2023-06-05T00:06:30;10.60;97.10
61392;DHT22;47261;52.892;5.738;2023-06-05T00:08:56;10.70;97.20
61392;DHT22;47261;52.892;5.738;2023-06-05T00:11:22;10.70;97.30
61392;DHT22;47261;52.892;5.738;2023-06-05T00:13:48;10.70;97.40
61392;DHT22;47261;52.892;5.738;2023-06-05T00:16:15;10.70;97.70
61392;DHT22;47261;52.892;5.738;2023-06-05T00:18:41;10.70;97.50
61392;DHT22;47261;52.892;5.738;2023-06-05T00:21:09;10.70;97.60
61392;DHT22;47261;52.892;5.738;2023-06-05T00:23:35;10.70;97.60
61392;DHT22;47261;52.892;5.738;2023-06-05T00:26:01;10.70;97.70
61392;DHT22;47261;52.892;5.738;2023-06-05T00:28:26;10.70;97.60
61392;DHT22;47261;52.892;5.738;2023-06-05T00:30:52;10.70;97.60
61392;DHT22;47261;52.892;5.738;2023-06-05T00:33:18;10.60;97.50
61392;DHT22;47261;52.892;5.738;2023-06-05T00:35:43;10.60;97.50
61392;DHT22;47261;52.892;5.738;2023-06-05T00:38:09;10.50;97.50
61392;DHT22;47261;52.892;5.738;2023-06-05T00:40:35;10.50;97.40
61392;DHT22;47261;52.892;5.738;2023-06-05T00:43:00;10.50;97.40
61392;DHT22;47261;52.892;5.738;2023-06-05T00:45:26;10.40;97.30
61392;DHT22;47261;52.892;5.738;2023-06-05T00:47:52;10.30;97.20
61392;DHT22;47261;52.892;5.738;2023-06-05T00:50:18;10.20;97.10
61392;DHT22;47261;52.892;5.738;2023-06-05T00:52:47;10.20;97.20
61392;DHT22;47261;52.892;5.738;2023-06-05T00:55:13;10.20;97.30
61392;DHT22;47261;52.892;5.738;2023-06-05T00:57:40;10.10;97.30
61392;DHT22;47261;52.892;5.738;2023-06-05T01:00:09;10.10;97.40
61392;DHT22;47261;52.892;5.738;2023-06-05T01:02:38;10.10;97.50
61392;DHT22;47261;52.892;5.738;2023-06-05T01:05:04;10.00;97.40
61392;DHT22;47261;52.892;5.738;2023-06-05T01:07:31;10.00;97.50
61392;DHT22;47261;52.892;5.738;2023-06-05T01:10:00;10.00;97.60
61392;DHT22;47261;52.892;5.738;2023-06-05T01:14:56;9.90;97.70
61392;DHT22;47261;52.892;5.738;2023-06-05T01:17:27;9.90;97.80
61392;DHT22;47261;52.892;5.738;2023-06-05T01:19:58;9.90;97.90
61392;DHT22;47261;52.892;5.738;2023-06-05T01:22:28;9.90;98.00
61392;DHT22;47261;52.892;5.738;2023-06-05T01:24:54;9.90;98.10
61392;DHT22;47261;52.892;5.738;2023-06-05T01:27:48;10.00;98.20
61392;DHT22;47261;52.892;5.738;2023-06-05T01:32:56;10.10;98.60
61392;DHT22;47261;52.892;5.738;2023-06-05T01:35:23;10.20;98.60
61392;DHT22;47261;52.892;5.738;2023-06-05T01:37:54;10.20;98.70
61392;DHT22;47261;52.892;5.738;2023-06-05T01:40:23;10.30;98.80
61392;DHT22;47261;52.892;5.738;2023-06-05T01:42:50;10.40;98.90
61392;DHT22;47261;52.892;5.738;2023-06-05T01:45:17;10.50;98.90
61392;DHT22;47261;52.892;5.738;2023-06-05T01:47:43;10.50;99.00
61392;DHT22;47261;52.892;5.738;2023-06-05T01:50:10;10.60;99.00
61392;DHT22;47261;52.892;5.738;2023-06-05T01:52:39;10.60;99.10
61392;DHT22;47261;52.892;5.738;2023-06-05T01:55:15;10.70;99.10
61392;DHT22;47261;52.892;5.738;2023-06-05T01:57:42;10.70;99.10
61392;DHT22;47261;52.892;5.738;2023-06-05T02:00:09;10.80;99.20
61392;DHT22;47261;52.892;5.738;2023-06-05T02:02:44;10.80;99.20
61392;DHT22;47261;52.892;5.738;2023-06-05T02:05:11;10.90;99.20
61392;DHT22;47261;52.892;5.738;2023-06-05T02:07:44;10.90;99.20
61392;DHT22;47261;52.892;5.738;2023-06-05T02:10:14;11.00;99.20
61392;DHT22;47261;52.892;5.738;2023-06-05T02:12:40;11.00;99.30
61392;DHT22;47261;52.892;5.738;2023-06-05T02:15:08;11.10;99.30
61392;DHT22;47261;52.892;5.738;2023-06-05T02:17:38;11.10;99.30
61392;DHT22;47261;52.892;5.738;2023-06-05T02:20:05;11.10;99.40
61392;DHT22;47261;52.892;5.738;2023-06-05T02:22:30;11.20;99.70
61392;DHT22;47261;52.892;5.738;2023-06-05T02:24:56;11.30;99.70
61392;DHT22;47261;52.892;5.738;2023-06-05T02:27:21;11.30;99.40
61392;DHT22;47261;52.892;5.738;2023-06-05T02:29:50;11.30;99.40
61392;DHT22;47261;52.892;5.738;2023-06-05T02:32:16;11.40;99.40
61392;DHT22;47261;52.892;5.738;2023-06-05T02:34:41;11.40;99.40
61392;DHT22;47261;52.892;5.738;2023-06-05T02:37:07;11.50;99.50
61392;DHT22;47261;52.892;5.738;2023-06-05T02:39:33;11.50;99.50
61392;DHT22;47261;52.892;5.738;2023-06-05T02:41:59;11.50;99.50
61392;DHT22;47261;52.892;5.738;2023-06-05T02:44:25;11.60;99.80
61392;DHT22;47261;52.892;5.738;2023-06-05T02:46:51;11.60;99.50
61392;DHT22;47261;52.892;5.738;2023-06-05T02:49:17;11.70;99.50
61392;DHT22;47261;52.892;5.738;2023-06-05T02:51:42;11.70;99.50
61392;DHT22;47261;52.892;5.738;2023-06-05T02:54:08;11.70;99.50
61392;DHT22;47261;52.892;5.738;2023-06-05T02:56:33;11.80;99.40
61392;DHT22;47261;52.892;5.738;2023-06-05T02:59:00;11.80;99.40
61392;DHT22;47261;52.892;5.738;2023-06-05T03:01:27;11.90;99.40
61392;DHT22;47261;52.892;5.738;2023-06-05T03:04:00;11.90;99.30
61392;DHT22;47261;52.892;5.738;2023-06-05T03:06:28;11.90;99.30
61392;DHT22;47261;52.892;5.738;2023-06-05T03:08:59;11.90;99.20
61392;DHT22;47261;52.892;5.738;2023-06-05T03:11:24;11.90;99.20
61392;DHT22;47261;52.892;5.738;2023-06-05T03:13:52;12.00;99.30
61392;DHT22;47261;52.892;5.738;2023-06-05T03:16:17;12.00;99.30
61392;DHT22;47261;52.892;5.738;2023-06-05T03:18:43;12.00;99.30
61392;DHT22;47261;52.892;5.738;2023-06-05T03:21:09;12.10;99.30
61392;DHT22;47261;52.892;5.738;2023-06-05T03:23:36;12.10;99.30
61392;DHT22;47261;52.892;5.738;2023-06-05T03:26:01;12.10;99.20
61392;DHT22;47261;52.892;5.738;2023-06-05T03:28:30;12.20;99.20
61392;DHT22;47261;52.892;5.738;2023-06-05T03:30:59;12.20;99.20
61392;DHT22;47261;52.892;5.738;2023-06-05T03:33:25;12.30;99.20
61392;DHT22;47261;52.892;5.738;2023-06-05T03:35:50;12.20;99.10
61392;DHT22;47261;52.892;5.738;2023-06-05T03:38:18;12.30;99.10
61392;DHT22;47261;52.892;5.738;2023-06-05T03:40:43;12.30;99.10
61392;DHT22;47261;52.892;5.738;2023-06-05T03:43:09;12.40;99.10
61392;DHT22;47261;52.892;5.738;2023-06-05T03:45:36;12.40;99.10
61392;DHT22;47261;52.892;5.738;2023-06-05T03:48:02;12.40;99.10
61392;DHT22;47261;52.892;5.738;2023-06-05T03:50:28;12.40;99.10
61392;DHT22;47261;52.892;5.738;2023-06-05T03:52:57;12.50;99.10
61392;DHT22;47261;52.892;5.738;2023-06-05T03:55:32;12.50;99.10
61392;DHT22;47261;52.892;5.738;2023-06-05T03:58:16;12.50;99.00
61392;DHT22;47261;52.892;5.738;2023-06-05T04:00:43;12.60;99.00
61392;DHT22;47261;52.892;5.738;2023-06-05T04:03:10;12.60;98.90
61392;DHT22;47261;52.892;5.738;2023-06-05T04:05:37;12.70;99.00
61392;DHT22;47261;52.892;5.738;2023-06-05T04:08:03;12.70;99.00
61392;DHT22;47261;52.892;5.738;2023-06-05T04:10:29;12.70;99.00
61392;DHT22;47261;52.892;5.738;2023-06-05T04:12:55;12.80;99.00
61392;DHT22;47261;52.892;5.738;2023-06-05T04:15:22;12.80;98.90
61392;DHT22;47261;52.892;5.738;2023-06-05T04:17:48;12.90;98.90
61392;DHT22;47261;52.892;5.738;2023-06-05T04:20:14;12.90;98.80
61392;DHT22;47261;52.892;5.738;2023-06-05T04:22:44;12.90;98.70
61392;DHT22;47261;52.892;5.738;2023-06-05T04:25:10;12.90;98.70
61392;DHT22;47261;52.892;5.738;2023-06-05T04:27:45;13.00;98.60
61392;DHT22;47261;52.892;5.738;2023-06-05T04:30:12;13.00;98.50
61392;DHT22;47261;52.892;5.738;2023-06-05T04:32:39;13.00;98.40
61392;DHT22;47261;52.892;5.738;2023-06-05T04:35:06;13.00;98.30
61392;DHT22;47261;52.892;5.738;2023-06-05T04:37:33;13.10;98.20
61392;DHT22;47261;52.892;5.738;2023-06-05T04:40:00;13.10;98.30
61392;DHT22;47261;52.892;5.738;2023-06-05T04:42:31;13.20;98.10
61392;DHT22;47261;52.892;5.738;2023-06-05T04:45:01;13.20;98.00
61392;DHT22;47261;52.892;5.738;2023-06-05T04:47:29;13.30;97.90
61392;DHT22;47261;52.892;5.738;2023-06-05T04:49:57;13.30;97.80
61392;DHT22;47261;52.892;5.738;2023-06-05T04:52:23;13.30;97.70
61392;DHT22;47261;52.892;5.738;2023-06-05T04:54:50;13.40;97.60
61392;DHT22;47261;52.892;5.738;2023-06-05T04:57:16;13.40;97.50
61392;DHT22;47261;52.892;5.738;2023-06-05T04:59:42;13.40;97.40
61392;DHT22;47261;52.892;5.738;2023-06-05T05:02:08;13.40;97.30
61392;DHT22;47261;52.892;5.738;2023-06-05T05:04:34;13.50;97.20
61392;DHT22;47261;52.892;5.738;2023-06-05T05:07:00;13.50;97.10
61392;DHT22;47261;52.892;5.738;2023-06-05T05:09:30;13.60;97.00
61392;DHT22;47261;52.892;5.738;2023-06-05T05:11:57;13.60;96.90
61392;DHT22;47261;52.892;5.738;2023-06-05T05:14:24;13.60;96.80
61392;DHT22;47261;52.892;5.738;2023-06-05T05:16:52;13.60;96.70
61392;DHT22;47261;52.892;5.738;2023-06-05T05:19:18;13.60;96.60
61392;DHT22;47261;52.892;5.738;2023-06-05T05:21:45;13.70;96.60
61392;DHT22;47261;52.892;5.738;2023-06-05T05:24:11;13.70;96.50
61392;DHT22;47261;52.892;5.738;2023-06-05T05:26:36;13.70;96.40
61392;DHT22;47261;52.892;5.738;2023-06-05T05:29:05;13.80;96.30
61392;DHT22;47261;52.892;5.738;2023-06-05T05:31:31;13.80;96.20
61392;DHT22;47261;52.892;5.738;2023-06-05T05:33:57;13.80;96.10
61392;DHT22;47261;52.892;5.738;2023-06-05T05:36:24;13.80;96.00
61392;DHT22;47261;52.892;5.738;2023-06-05T05:38:50;13.90;95.90
61392;DHT22;47261;52.892;5.738;2023-06-05T05:41:16;13.80;95.90
61392;DHT22;47261;52.892;5.738;2023-06-05T05:43:42;13.90;95.90
61392;DHT22;47261;52.892;5.738;2023-06-05T05:46:07;13.90;95.80
61392;DHT22;47261;52.892;5.738;2023-06-05T05:48:37;14.10;95.70
61392;DHT22;47261;52.892;5.738;2023-06-05T05:51:02;14.10;95.60
61392;DHT22;47261;52.892;5.738;2023-06-05T05:53:28;14.20;95.60
61392;DHT22;47261;52.892;5.738;2023-06-05T05:55:54;14.30;95.40
61392;DHT22;47261;52.892;5.738;2023-06-05T05:58:20;14.30;95.20
61392;DHT22;47261;52.892;5.738;2023-06-05T06:00:45;14.30;95.20
61392;DHT22;47261;52.892;5.738;2023-06-05T06:03:13;14.40;95.20
61392;DHT22;47261;52.892;5.738;2023-06-05T06:05:39;14.40;95.10
61392;DHT22;47261;52.892;5.738;2023-06-05T06:08:05;14.40;94.90
61392;DHT22;47261;52.892;5.738;2023-06-05T06:10:31;14.40;94.90
61392;DHT22;47261;52.892;5.738;2023-06-05T06:12:58;14.50;94.80
61392;DHT22;47261;52.892;5.738;2023-06-05T06:15:23;14.50;94.70
61392;DHT22;47261;52.892;5.738;2023-06-05T06:17:49;14.60;94.60
61392;DHT22;47261;52.892;5.738;2023-06-05T06:20:15;14.60;94.70
61392;DHT22;47261;52.892;5.738;2023-06-05T06:22:41;14.70;94.30
61392;DHT22;47261;52.892;5.738;2023-06-05T06:25:09;14.70;93.90
61392;DHT22;47261;52.892;5.738;2023-06-05T06:27:36;14.80;93.60
61392;DHT22;47261;52.892;5.738;2023-06-05T06:30:03;14.80;93.40
61392;DHT22;47261;52.892;5.738;2023-06-05T06:32:28;14.70;93.10
61392;DHT22;47261;52.892;5.738;2023-06-05T06:34:55;14.80;93.00
61392;DHT22;47261;52.892;5.738;2023-06-05T06:37:21;14.90;93.10
61392;DHT22;47261;52.892;5.738;2023-06-05T06:39:47;15.00;92.90
61392;DHT22;47261;52.892;5.738;2023-06-05T06:42:13;15.10;92.70
61392;DHT22;47261;52.892;5.738;2023-06-05T06:44:39;15.30;92.90
61392;DHT22;47261;52.892;5.738;2023-06-05T06:47:06;15.50;92.60
61392;DHT22;47261;52.892;5.738;2023-06-05T06:49:32;15.70;92.40
61392;DHT22;47261;52.892;5.738;2023-06-05T06:51:58;15.80;92.30
61392;DHT22;47261;52.892;5.738;2023-06-05T06:54:24;16.00;92.10
61392;DHT22;47261;52.892;5.738;2023-06-05T06:56:51;16.10;91.90
61392;DHT22;47261;52.892;5.738;2023-06-05T06:59:17;16.30;91.80
61392;DHT22;47261;52.892;5.738;2023-06-05T07:01:45;16.40;91.60
61392;DHT22;47261;52.892;5.738;2023-06-05T07:04:16;16.50;91.10
61392;DHT22;47261;52.892;5.738;2023-06-05T07:06:46;16.50;90.30
61392;DHT22;47261;52.892;5.738;2023-06-05T07:09:12;16.50;90.10
61392;DHT22;47261;52.892;5.738;2023-06-05T07:11:38;16.40;89.90
61392;DHT22;47261;52.892;5.738;2023-06-05T07:14:03;16.30;90.00
61392;DHT22;47261;52.892;5.738;2023-06-05T07:16:29;16.30;90.00
61392;DHT22;47261;52.892;5.738;2023-06-05T07:18:55;16.30;90.00
61392;DHT22;47261;52.892;5.738;2023-06-05T07:21:21;16.30;90.00
61392;DHT22;47261;52.892;5.738;2023-06-05T07:23:50;16.30;90.10
61392;DHT22;47261;52.892;5.738;2023-06-05T07:26:19;16.40;90.10
61392;DHT22;47261;52.892;5.738;2023-06-05T07:28:45;16.70;90.30
61392;DHT22;47261;52.892;5.738;2023-06-05T07:31:13;17.00;90.10
61392;DHT22;47261;52.892;5.738;2023-06-05T07:33:39;17.30;89.10
61392;DHT22;47261;52.892;5.738;2023-06-05T07:36:07;17.40;87.90
61392;DHT22;47261;52.892;5.738;2023-06-05T07:38:33;17.50;86.60
61392;DHT22;47261;52.892;5.738;2023-06-05T07:40:59;17.40;86.00
61392;DHT22;47261;52.892;5.738;2023-06-05T07:43:27;17.40;85.90
61392;DHT22;47261;52.892;5.738;2023-06-05T07:45:53;17.30;86.20
61392;DHT22;47261;52.892;5.738;2023-06-05T07:48:20;17.40;86.50
61392;DHT22;47261;52.892;5.738;2023-06-05T07:50:45;17.60;87.00
61392;DHT22;47261;52.892;5.738;2023-06-05T07:53:11;17.60;86.20
61392;DHT22;47261;52.892;5.738;2023-06-05T07:55:37;17.70;86.00
61392;DHT22;47261;52.892;5.738;2023-06-05T07:58:02;17.70;85.60
61392;DHT22;47261;52.892;5.738;2023-06-05T08:00:28;17.80;85.20
61392;DHT22;47261;52.892;5.738;2023-06-05T08:02:54;17.80;85.10
61392;DHT22;47261;52.892;5.738;2023-06-05T08:05:20;17.80;84.40
61392;DHT22;47261;52.892;5.738;2023-06-05T08:07:46;17.90;84.20
61392;DHT22;47261;52.892;5.738;2023-06-05T08:10:12;17.90;84.10
61392;DHT22;47261;52.892;5.738;2023-06-05T08:12:38;18.00;83.80
61392;DHT22;47261;52.892;5.738;2023-06-05T08:15:04;18.10;83.40
61392;DHT22;47261;52.892;5.738;2023-06-05T08:17:31;18.10;83.60
61392;DHT22;47261;52.892;5.738;2023-06-05T08:19:57;18.20;83.60
61392;DHT22;47261;52.892;5.738;2023-06-05T08:22:23;18.30;83.60
61392;DHT22;47261;52.892;5.738;2023-06-05T08:24:48;18.40;83.60
61392;DHT22;47261;52.892;5.738;2023-06-05T08:27:18;18.50;83.30
61392;DHT22;47261;52.892;5.738;2023-06-05T08:29:44;18.50;82.80
61392;DHT22;47261;52.892;5.738;2023-06-05T08:32:10;18.60;82.50
61392;DHT22;47261;52.892;5.738;2023-06-05T08:34:36;18.70;82.20
61392;DHT22;47261;52.892;5.738;2023-06-05T08:37:02;18.70;82.00
61392;DHT22;47261;52.892;5.738;2023-06-05T08:39:28;18.80;80.70
61392;DHT22;47261;52.892;5.738;2023-06-05T08:42:00;18.80;81.10
61392;DHT22;47261;52.892;5.738;2023-06-05T08:44:28;18.80;81.20
61392;DHT22;47261;52.892;5.738;2023-06-05T08:47:01;18.90;81.00
61392;DHT22;47261;52.892;5.738;2023-06-05T08:49:28;19.00;80.50
61392;DHT22;47261;52.892;5.738;2023-06-05T08:52:05;19.10;80.70
61392;DHT22;47261;52.892;5.738;2023-06-05T08:54:37;19.10;80.40
61392;DHT22;47261;52.892;5.738;2023-06-05T08:57:04;19.20;80.60
61392;DHT22;47261;52.892;5.738;2023-06-05T08:59:30;19.30;79.70
61392;DHT22;47261;52.892;5.738;2023-06-05T09:01:56;19.30;79.50
61392;DHT22;47261;52.892;5.738;2023-06-05T09:04:23;19.30;80.30
61392;DHT22;47261;52.892;5.738;2023-06-05T09:06:56;19.40;80.40
61392;DHT22;47261;52.892;5.738;2023-06-05T09:09:21;19.60;80.80
61392;DHT22;47261;52.892;5.738;2023-06-05T09:11:47;19.80;80.10
61392;DHT22;47261;52.892;5.738;2023-06-05T09:14:26;19.90;79.20
61392;DHT22;47261;52.892;5.738;2023-06-05T09:16:51;20.00;78.40
61392;DHT22;47261;52.892;5.738;2023-06-05T09:19:17;20.10;78.50
61392;DHT22;47261;52.892;5.738;2023-06-05T09:21:52;20.30;78.40
61392;DHT22;47261;52.892;5.738;2023-06-05T09:24:19;20.50;77.40
61392;DHT22;47261;52.892;5.738;2023-06-05T09:27:01;20.80;77.50
61392;DHT22;47261;52.892;5.738;2023-06-05T09:29:34;21.10;76.60
61392;DHT22;47261;52.892;5.738;2023-06-05T09:32:03;21.40;75.90
61392;DHT22;47261;52.892;5.738;2023-06-05T09:34:33;21.70;75.10
61392;DHT22;47261;52.892;5.738;2023-06-05T09:37:01;21.90;73.40
61392;DHT22;47261;52.892;5.738;2023-06-05T09:39:28;22.10;73.10
61392;DHT22;47261;52.892;5.738;2023-06-05T09:41:55;22.30;71.50
61392;DHT22;47261;52.892;5.738;2023-06-05T09:44:22;22.40;71.30
61392;DHT22;47261;52.892;5.738;2023-06-05T09:47:02;22.50;69.30
61392;DHT22;47261;52.892;5.738;2023-06-05T09:49:46;22.40;68.80
61392;DHT22;47261;52.892;5.738;2023-06-05T09:52:15;22.40;69.80
61392;DHT22;47261;52.892;5.738;2023-06-05T09:54:45;22.60;68.70
61392;DHT22;47261;52.892;5.738;2023-06-05T09:57:12;22.60;67.60
61392;DHT22;47261;52.892;5.738;2023-06-05T09:59:58;22.60;68.00
61392;DHT22;47261;52.892;5.738;2023-06-05T10:02:33;22.60;67.50
61392;DHT22;47261;52.892;5.738;2023-06-05T10:05:02;22.60;66.70
61392;DHT22;47261;52.892;5.738;2023-06-05T10:07:30;22.60;67.20
61392;DHT22;47261;52.892;5.738;2023-06-05T10:10:01;22.60;67.40
61392;DHT22;47261;52.892;5.738;2023-06-05T10:12:27;22.60;67.50
61392;DHT22;47261;52.892;5.738;2023-06-05T10:14:56;22.80;66.20
61392;DHT22;47261;52.892;5.738;2023-06-05T10:17:23;22.90;66.50
61392;DHT22;47261;52.892;5.738;2023-06-05T10:19:49;23.20;66.20
61392;DHT22;47261;52.892;5.738;2023-06-05T10:22:17;23.30;65.30
61392;DHT22;47261;52.892;5.738;2023-06-05T10:24:47;23.50;64.90
61392;DHT22;47261;52.892;5.738;2023-06-05T10:33:15;23.90;63.00
61392;DHT22;47261;52.892;5.738;2023-06-05T10:38:32;24.00;62.80
61392;DHT22;47261;52.892;5.738;2023-06-05T10:41:01;24.00;62.90
61392;DHT22;47261;52.892;5.738;2023-06-05T10:46:40;24.00;60.80
61392;DHT22;47261;52.892;5.738;2023-06-05T10:49:10;24.10;61.60
61392;DHT22;47261;52.892;5.738;2023-06-05T10:59:28;24.20;60.50
61392;DHT22;47261;52.892;5.738;2023-06-05T11:07:25;24.10;61.00
61392;DHT22;47261;52.892;5.738;2023-06-05T11:10:16;24.20;62.50
61392;DHT22;47261;52.892;5.738;2023-06-05T11:17:55;24.90;60.80
61392;DHT22;47261;52.892;5.738;2023-06-05T11:30:23;25.20;57.00
61392;DHT22;47261;52.892;5.738;2023-06-05T11:32:50;25.10;57.40
61392;DHT22;47261;52.892;5.738;2023-06-05T11:35:21;25.10;58.00
61392;DHT22;47261;52.892;5.738;2023-06-05T11:37:47;25.20;57.50
61392;DHT22;47261;52.892;5.738;2023-06-05T11:40:24;25.20;56.70
61392;DHT22;47261;52.892;5.738;2023-06-05T11:42:50;25.30;57.70
61392;DHT22;47261;52.892;5.738;2023-06-05T11:45:15;25.30;57.40
61392;DHT22;47261;52.892;5.738;2023-06-05T11:47:41;25.30;57.50
61392;DHT22;47261;52.892;5.738;2023-06-05T11:50:11;25.40;57.00
61392;DHT22;47261;52.892;5.738;2023-06-05T11:52:38;25.40;57.10
61392;DHT22;47261;52.892;5.738;2023-06-05T11:55:18;25.50;58.00
61392;DHT22;47261;52.892;5.738;2023-06-05T11:57:54;25.60;58.00
61392;DHT22;47261;52.892;5.738;2023-06-05T12:00:25;25.70;57.80
61392;DHT22;47261;52.892;5.738;2023-06-05T12:02:51;25.60;57.10
61392;DHT22;47261;52.892;5.738;2023-06-05T12:05:17;25.50;56.90
61392;DHT22;47261;52.892;5.738;2023-06-05T12:07:43;25.30;57.10
61392;DHT22;47261;52.892;5.738;2023-06-05T12:10:09;25.00;57.40
61392;DHT22;47261;52.892;5.738;2023-06-05T12:12:53;24.80;57.20
61392;DHT22;47261;52.892;5.738;2023-06-05T12:15:20;24.60;57.80
61392;DHT22;47261;52.892;5.738;2023-06-05T12:17:50;24.40;59.00
61392;DHT22;47261;52.892;5.738;2023-06-05T12:20:19;24.20;59.40
61392;DHT22;47261;52.892;5.738;2023-06-05T12:22:46;23.90;60.40
61392;DHT22;47261;52.892;5.738;2023-06-05T12:25:19;23.70;60.90
61392;DHT22;47261;52.892;5.738;2023-06-05T12:27:45;23.50;60.20
61392;DHT22;47261;52.892;5.738;2023-06-05T12:30:12;23.30;60.50
61392;DHT22;47261;52.892;5.738;2023-06-05T12:32:38;23.20;60.90
61392;DHT22;47261;52.892;5.738;2023-06-05T12:35:24;23.20;62.10
61392;DHT22;47261;52.892;5.738;2023-06-05T12:37:59;23.10;62.40
61392;DHT22;47261;52.892;5.738;2023-06-05T12:40:25;23.00;62.50
61392;DHT22;47261;52.892;5.738;2023-06-05T12:42:51;23.00;62.10
61392;DHT22;47261;52.892;5.738;2023-06-05T12:45:16;22.80;61.90
61392;DHT22;47261;52.892;5.738;2023-06-05T12:47:42;22.60;61.80
61392;DHT22;47261;52.892;5.738;2023-06-05T12:50:10;22.50;62.50
61392;DHT22;47261;52.892;5.738;2023-06-05T12:52:40;22.60;62.90
61392;DHT22;47261;52.892;5.738;2023-06-05T12:55:06;22.50;63.80
61392;DHT22;47261;52.892;5.738;2023-06-05T12:57:34;22.50;64.30
61392;DHT22;47261;52.892;5.738;2023-06-05T13:00:02;22.50;64.60
61392;DHT22;47261;52.892;5.738;2023-06-05T13:02:36;22.40;64.40
61392;DHT22;47261;52.892;5.738;2023-06-05T13:05:02;22.30;65.60
61392;DHT22;47261;52.892;5.738;2023-06-05T13:07:30;22.20;65.20
61392;DHT22;47261;52.892;5.738;2023-06-05T13:09:56;22.10;65.80
61392;DHT22;47261;52.892;5.738;2023-06-05T13:12:22;22.10;66.00
61392;DHT22;47261;52.892;5.738;2023-06-05T13:14:48;22.10;66.10
61392;DHT22;47261;52.892;5.738;2023-06-05T13:17:14;22.00;66.10
61392;DHT22;47261;52.892;5.738;2023-06-05T13:19:39;21.90;64.90
61392;DHT22;47261;52.892;5.738;2023-06-05T13:22:05;21.90;65.20
61392;DHT22;47261;52.892;5.738;2023-06-05T13:24:31;21.90;65.30
61392;DHT22;47261;52.892;5.738;2023-06-05T13:26:57;21.80;64.20
61392;DHT22;47261;52.892;5.738;2023-06-05T13:29:23;21.80;65.30
61392;DHT22;47261;52.892;5.738;2023-06-05T13:31:48;21.80;66.20
61392;DHT22;47261;52.892;5.738;2023-06-05T13:34:14;21.80;66.70
61392;DHT22;47261;52.892;5.738;2023-06-05T13:36:39;21.90;66.40
61392;DHT22;47261;52.892;5.738;2023-06-05T13:39:05;22.10;65.70
61392;DHT22;47261;52.892;5.738;2023-06-05T13:41:31;22.30;64.80
61392;DHT22;47261;52.892;5.738;2023-06-05T13:43:56;22.50;64.00
61392;DHT22;47261;52.892;5.738;2023-06-05T13:46:23;22.80;63.50
61392;DHT22;47261;52.892;5.738;2023-06-05T13:48:49;23.10;62.50
61392;DHT22;47261;52.892;5.738;2023-06-05T13:51:15;23.30;62.50
61392;DHT22;47261;52.892;5.738;2023-06-05T13:53:41;23.50;62.10
61392;DHT22;47261;52.892;5.738;2023-06-05T13:56:07;23.70;61.40
61392;DHT22;47261;52.892;5.738;2023-06-05T13:58:32;23.90;61.50
61392;DHT22;47261;52.892;5.738;2023-06-05T14:00:59;23.90;61.00
61392;DHT22;47261;52.892;5.738;2023-06-05T14:03:25;23.90;59.90
61392;DHT22;47261;52.892;5.738;2023-06-05T14:05:51;23.70;60.40
61392;DHT22;47261;52.892;5.738;2023-06-05T14:08:17;23.50;61.20
61392;DHT22;47261;52.892;5.738;2023-06-05T14:10:43;23.30;62.30
61392;DHT22;47261;52.892;5.738;2023-06-05T14:13:08;23.20;62.70
61392;DHT22;47261;52.892;5.738;2023-06-05T14:15:34;23.10;63.00
61392;DHT22;47261;52.892;5.738;2023-06-05T14:18:05;23.00;63.90
61392;DHT22;47261;52.892;5.738;2023-06-05T14:20:31;22.80;64.00
61392;DHT22;47261;52.892;5.738;2023-06-05T14:22:58;22.70;64.40
61392;DHT22;47261;52.892;5.738;2023-06-05T14:25:24;22.60;64.70
61392;DHT22;47261;52.892;5.738;2023-06-05T14:27:57;22.40;63.90
61392;DHT22;47261;52.892;5.738;2023-06-05T14:30:23;22.30;64.10
61392;DHT22;47261;52.892;5.738;2023-06-05T14:32:49;22.30;64.40
61392;DHT22;47261;52.892;5.738;2023-06-05T14:35:15;22.20;64.90
61392;DHT22;47261;52.892;5.738;2023-06-05T14:37:42;22.30;64.80
61392;DHT22;47261;52.892;5.738;2023-06-05T14:40:08;22.30;64.30
61392;DHT22;47261;52.892;5.738;2023-06-05T14:42:34;22.30;63.90
61392;DHT22;47261;52.892;5.738;2023-06-05T14:45:01;22.30;65.10
61392;DHT22;47261;52.892;5.738;2023-06-05T14:47:27;22.30;64.30
61392;DHT22;47261;52.892;5.738;2023-06-05T14:49:53;22.20;64.00
61392;DHT22;47261;52.892;5.738;2023-06-05T14:52:19;22.20;65.00
61392;DHT22;47261;52.892;5.738;2023-06-05T14:54:44;22.20;65.00
61392;DHT22;47261;52.892;5.738;2023-06-05T14:57:10;22.20;64.80
61392;DHT22;47261;52.892;5.738;2023-06-05T14:59:36;22.10;65.20
61392;DHT22;47261;52.892;5.738;2023-06-05T15:02:01;22.10;65.20
61392;DHT22;47261;52.892;5.738;2023-06-05T15:04:28;22.00;64.20
61392;DHT22;47261;52.892;5.738;2023-06-05T15:06:54;21.90;65.00
61392;DHT22;47261;52.892;5.738;2023-06-05T15:09:21;21.80;65.00
61392;DHT22;47261;52.892;5.738;2023-06-05T15:11:47;21.60;66.00
61392;DHT22;47261;52.892;5.738;2023-06-05T15:14:12;21.50;66.80
61392;DHT22;47261;52.892;5.738;2023-06-05T15:16:38;21.20;67.10
61392;DHT22;47261;52.892;5.738;2023-06-05T15:19:04;21.10;68.60
61392;DHT22;47261;52.892;5.738;2023-06-05T15:21:29;21.00;68.10
61392;DHT22;47261;52.892;5.738;2023-06-05T15:23:55;21.00;67.90
61392;DHT22;47261;52.892;5.738;2023-06-05T15:26:21;20.90;68.10
61392;DHT22;47261;52.892;5.738;2023-06-05T15:28:47;20.80;67.70
61392;DHT22;47261;52.892;5.738;2023-06-05T15:31:12;20.70;68.40
61392;DHT22;47261;52.892;5.738;2023-06-05T15:33:39;20.50;68.00
61392;DHT22;47261;52.892;5.738;2023-06-05T15:36:05;20.40;68.40
61392;DHT22;47261;52.892;5.738;2023-06-05T15:38:31;20.30;68.50
61392;DHT22;47261;52.892;5.738;2023-06-05T15:40:56;20.30;70.30
61392;DHT22;47261;52.892;5.738;2023-06-05T15:43:23;20.10;69.40
61392;DHT22;47261;52.892;5.738;2023-06-05T15:45:48;20.10;70.00
61392;DHT22;47261;52.892;5.738;2023-06-05T15:48:15;20.10;69.60
61392;DHT22;47261;52.892;5.738;2023-06-05T15:50:41;20.10;69.70
61392;DHT22;47261;52.892;5.738;2023-06-05T15:53:07;20.00;69.50
61392;DHT22;47261;52.892;5.738;2023-06-05T15:55:33;20.00;69.90
61392;DHT22;47261;52.892;5.738;2023-06-05T15:58:03;19.90;70.10
61392;DHT22;47261;52.892;5.738;2023-06-05T16:00:29;19.80;70.10
61392;DHT22;47261;52.892;5.738;2023-06-05T16:02:55;19.60;70.60
61392;DHT22;47261;52.892;5.738;2023-06-05T16:05:21;19.50;70.80
61392;DHT22;47261;52.892;5.738;2023-06-05T16:07:47;19.50;71.00
61392;DHT22;47261;52.892;5.738;2023-06-05T16:10:13;19.40;71.50
61392;DHT22;47261;52.892;5.738;2023-06-05T16:12:38;19.30;72.10
61392;DHT22;47261;52.892;5.738;2023-06-05T16:15:04;19.30;72.20
61392;DHT22;47261;52.892;5.738;2023-06-05T16:17:30;19.30;72.00